Cleveland Corner, Vermont
Current Conditions -  °F | °C
As of 11:54 AM on Friday 28 Nov 2014 (Local Time) from KMVL Reporting Station
Overcast Overcast  
Wind Chill: 18°   Ceiling: 3600
Heat Index: 25°   Visibility: 10mi
Dew Point: 13°   Wind: 6mph
Humidity: 60%   Direction: NA
Pressure: 30.07"   Gusts: NA
Location:  44.5482°N, 72.6315°W
Report Text: KMVL 281654Z AUTO VRB05KT 10SM OVC036 M04/M11 A3007 RMK AO2 SLP195 T10391106 TSNO
Loading
Personal Weather Stations






























Interactive Weather Map New forecast layout! Learn more

10-Day Weather Forecast

Advertisements
Track Severe Weather on mobile